createdAt,value
2022-12-11T00:00:10.658Z,40.50
2022-12-11T00:01:10.659Z,40.70
2022-12-11T00:02:10.735Z,40.80
2022-12-11T00:03:15.584Z,40.20
2022-12-11T00:04:11.636Z,41.30
2022-12-11T00:05:10.930Z,41.70
2022-12-11T00:06:10.607Z,41.00
2022-12-11T00:07:10.584Z,41.70
2022-12-11T00:08:10.612Z,40.40
2022-12-11T00:09:10.557Z,40.70
2022-12-11T00:10:10.599Z,42.80
2022-12-11T00:11:10.538Z,42.80
2022-12-11T00:12:10.587Z,41.50
2022-12-11T00:13:10.519Z,41.70
2022-12-11T00:14:10.537Z,41.80
2022-12-11T00:15:10.655Z,40.90
2022-12-11T00:16:10.648Z,39.70
2022-12-11T00:17:10.505Z,37.80
2022-12-11T00:18:10.519Z,35.90
2022-12-11T00:19:10.456Z,34.70
2022-12-11T00:20:10.467Z,35.00
2022-12-11T00:21:10.429Z,34.40
2022-12-11T00:22:10.470Z,33.00
2022-12-11T00:23:10.412Z,33.10
2022-12-11T00:24:10.409Z,32.10
2022-12-11T00:25:10.710Z,32.40
2022-12-11T00:26:10.388Z,33.10
2022-12-11T00:27:10.358Z,31.90
2022-12-11T00:28:10.412Z,32.20
2022-12-11T00:29:10.349Z,33.00
2022-12-11T00:30:10.419Z,33.90
2022-12-11T00:31:10.328Z,32.50
2022-12-11T00:32:10.740Z,33.10
2022-12-11T00:33:10.309Z,33.70
2022-12-11T00:34:10.339Z,32.80
2022-12-11T00:35:10.665Z,33.60
2022-12-11T00:36:10.282Z,33.00
2022-12-11T00:37:10.293Z,33.30
2022-12-11T00:38:10.263Z,33.10
2022-12-11T00:39:10.238Z,33.40
2022-12-11T00:40:10.278Z,33.10
2022-12-11T00:41:10.226Z,32.40
2022-12-11T00:42:10.270Z,33.20
2022-12-11T00:43:10.208Z,31.40
2022-12-11T00:44:10.210Z,31.10
2022-12-11T00:45:10.556Z,34.40
2022-12-11T00:46:10.273Z,33.70
2022-12-11T00:47:10.159Z,33.50
2022-12-11T00:48:10.201Z,33.00
2022-12-11T00:49:10.146Z,32.40
2022-12-11T00:50:10.138Z,32.70
2022-12-11T00:51:10.117Z,33.30
2022-12-11T00:52:10.143Z,32.60
2022-12-11T00:53:10.108Z,31.90
2022-12-11T00:54:10.221Z,33.30
2022-12-11T00:55:10.409Z,33.20
2022-12-11T00:56:10.079Z,32.40
2022-12-11T00:57:10.062Z,32.80
2022-12-11T00:58:10.074Z,33.30
2022-12-11T00:59:10.059Z,33.50
2022-12-11T01:00:10.044Z,32.60
2022-12-11T01:01:10.072Z,33.10
2022-12-11T01:02:10.003Z,33.90
2022-12-11T01:03:10.030Z,34.60
2022-12-11T01:04:09.999Z,34.80
2022-12-11T01:05:10.337Z,34.10
2022-12-11T01:06:09.999Z,34.20
2022-12-11T01:07:09.951Z,34.20
2022-12-11T01:08:10.019Z,34.40
2022-12-11T01:09:09.939Z,34.60
2022-12-11T01:10:09.995Z,35.40
2022-12-11T01:11:09.920Z,34.50
2022-12-11T01:12:09.915Z,33.60
2022-12-11T01:13:09.880Z,33.90
2022-12-11T01:14:10.010Z,34.50
2022-12-11T01:15:10.144Z,35.50
2022-12-11T01:16:09.879Z,34.60
2022-12-11T01:17:09.858Z,34.40
2022-12-11T01:18:09.951Z,35.40
2022-12-11T01:19:09.830Z,34.40
2022-12-11T01:20:09.857Z,34.80
2022-12-11T01:21:09.815Z,35.80
2022-12-11T01:22:09.848Z,34.70
2022-12-11T01:23:09.805Z,35.00
2022-12-11T01:24:09.806Z,34.40
2022-12-11T01:25:10.097Z,35.30
2022-12-11T01:26:09.838Z,35.60
2022-12-11T01:27:09.740Z,34.70
2022-12-11T01:28:09.730Z,34.90
2022-12-11T01:29:09.720Z,36.00
2022-12-11T01:30:09.747Z,35.50
2022-12-11T01:31:09.739Z,36.30
2022-12-11T01:32:09.724Z,34.30
2022-12-11T01:33:09.669Z,35.50
2022-12-11T01:34:09.666Z,36.10
2022-12-11T01:35:09.915Z,37.10
2022-12-11T01:36:09.655Z,36.30
2022-12-11T01:37:09.641Z,37.60
2022-12-11T01:38:09.631Z,36.10
2022-12-11T01:39:09.620Z,36.50
2022-12-11T01:40:09.607Z,35.60
2022-12-11T01:41:09.599Z,35.40
2022-12-11T01:42:09.617Z,36.50
2022-12-11T01:43:09.569Z,35.20
2022-12-11T01:44:09.573Z,36.60
2022-12-11T01:45:09.690Z,36.90
2022-12-11T01:46:09.621Z,36.50
2022-12-11T01:47:09.524Z,36.60
2022-12-11T01:48:09.557Z,36.30
2022-12-11T01:49:09.501Z,36.40
2022-12-11T01:50:09.561Z,36.60
2022-12-11T01:51:09.506Z,37.30
2022-12-11T01:52:09.527Z,36.80
2022-12-11T01:53:09.462Z,35.50
2022-12-11T01:54:09.452Z,35.30
2022-12-11T01:55:09.869Z,35.10
2022-12-11T01:56:09.501Z,36.50
2022-12-11T01:57:09.413Z,35.00
2022-12-11T01:58:09.589Z,36.10
2022-12-11T01:59:09.401Z,35.60
2022-12-11T02:00:09.401Z,35.20
2022-12-11T02:01:09.443Z,33.50
2022-12-11T02:02:09.491Z,34.80
2022-12-11T02:03:09.353Z,34.40
2022-12-11T02:04:09.384Z,32.80
2022-12-11T02:05:09.540Z,33.40
2022-12-11T02:06:09.443Z,33.40
2022-12-11T02:07:09.314Z,33.90
2022-12-11T02:08:09.444Z,34.40
2022-12-11T02:09:09.293Z,34.10
2022-12-11T02:10:09.352Z,34.40
2022-12-11T02:11:09.345Z,33.90
2022-12-11T02:12:09.298Z,33.70
2022-12-11T02:13:09.254Z,34.60
2022-12-11T02:14:09.247Z,34.00
2022-12-11T02:15:09.633Z,34.90
2022-12-11T02:16:09.272Z,33.80
2022-12-11T02:17:09.232Z,34.40
2022-12-11T02:18:09.230Z,33.40
2022-12-11T02:19:09.194Z,34.10
2022-12-11T02:20:09.253Z,34.20
2022-12-11T02:21:09.175Z,34.10
2022-12-11T02:22:09.222Z,34.80
2022-12-11T02:23:09.162Z,35.20
2022-12-11T02:24:09.156Z,35.10
2022-12-11T02:25:09.407Z,34.90
2022-12-11T02:26:09.197Z,34.40
2022-12-11T02:27:09.122Z,35.60
2022-12-11T02:28:09.133Z,36.60
2022-12-11T02:29:09.119Z,36.60
2022-12-11T02:30:09.066Z,36.20
2022-12-11T02:31:09.104Z,36.60
2022-12-11T02:32:09.214Z,36.70
2022-12-11T02:33:09.042Z,37.00
2022-12-11T02:34:09.036Z,35.30
2022-12-11T02:35:09.439Z,36.10
2022-12-11T02:36:09.062Z,36.40
2022-12-11T02:37:09.015Z,34.20
2022-12-11T02:38:09.074Z,36.40
2022-12-11T02:39:08.995Z,35.50
2022-12-11T02:40:09.120Z,34.60
2022-12-11T02:41:08.964Z,35.00
2022-12-11T02:42:09.051Z,35.50
2022-12-11T02:43:08.941Z,36.40
2022-12-11T02:44:08.987Z,35.20
2022-12-11T02:45:09.216Z,35.10
2022-12-11T02:46:08.953Z,35.30
2022-12-11T02:47:08.903Z,34.40
2022-12-11T02:48:08.916Z,34.70
2022-12-11T02:49:08.874Z,33.90
2022-12-11T02:50:08.864Z,35.00
2022-12-11T02:51:08.854Z,34.30
2022-12-11T02:52:08.924Z,35.00
2022-12-11T02:53:08.853Z,35.10
2022-12-11T02:54:08.932Z,34.50
2022-12-11T02:55:09.273Z,35.40
2022-12-11T02:56:09.027Z,34.70
2022-12-11T02:57:08.814Z,33.60
2022-12-11T02:58:08.845Z,34.70
2022-12-11T02:59:08.780Z,34.60
2022-12-11T03:00:08.782Z,36.10
2022-12-11T03:01:08.792Z,36.00
2022-12-11T03:02:08.816Z,33.90
2022-12-11T03:03:08.726Z,35.20
2022-12-11T03:04:08.784Z,35.60
2022-12-11T03:05:09.218Z,35.90
2022-12-11T03:06:08.736Z,34.80
2022-12-11T03:07:08.695Z,36.30
2022-12-11T03:08:08.724Z,34.90
2022-12-11T03:09:08.677Z,34.50
2022-12-11T03:10:08.867Z,34.50
2022-12-11T03:11:08.664Z,34.20
2022-12-11T03:12:08.751Z,34.40
2022-12-11T03:13:08.675Z,35.70
2022-12-11T03:14:08.704Z,34.20
2022-12-11T03:15:09.025Z,34.20
2022-12-11T03:16:08.689Z,33.00
2022-12-11T03:17:08.574Z,34.20
2022-12-11T03:18:08.593Z,34.00
2022-12-11T03:19:08.555Z,33.50
2022-12-11T03:20:08.581Z,34.40
2022-12-11T03:21:08.535Z,33.30
2022-12-11T03:22:08.756Z,31.30
2022-12-11T03:23:08.526Z,32.00
2022-12-11T03:24:08.515Z,32.10
2022-12-11T03:25:08.781Z,31.90
2022-12-11T03:26:08.518Z,31.50
2022-12-11T03:27:11.287Z,32.20
2022-12-11T03:28:08.502Z,31.80
2022-12-11T03:29:08.521Z,31.40
2022-12-11T03:30:08.494Z,31.60
2022-12-11T03:31:08.479Z,30.20
2022-12-11T03:32:08.436Z,31.60
2022-12-11T03:33:08.415Z,31.50
2022-12-11T03:34:08.405Z,31.50
2022-12-11T03:35:08.385Z,31.00
2022-12-11T03:36:08.376Z,30.80
2022-12-11T03:37:08.365Z,29.90
2022-12-11T03:38:08.385Z,29.40
2022-12-11T03:39:08.447Z,29.90
2022-12-11T03:40:08.377Z,29.70
2022-12-11T03:41:08.325Z,29.80
2022-12-11T03:42:08.388Z,29.60
2022-12-11T03:43:08.328Z,30.10
2022-12-11T03:44:08.376Z,29.60
2022-12-11T03:45:08.520Z,30.60
2022-12-11T03:46:08.332Z,28.90
2022-12-11T03:47:08.265Z,30.30
2022-12-11T03:48:08.286Z,31.00
2022-12-11T03:49:08.234Z,30.20
2022-12-11T03:50:08.403Z,29.40
2022-12-11T03:51:08.257Z,30.90
2022-12-11T03:52:08.206Z,30.40
2022-12-11T03:53:08.241Z,30.60
2022-12-11T03:54:08.256Z,30.30
2022-12-11T03:55:08.524Z,29.10
2022-12-11T03:56:08.216Z,31.00
2022-12-11T03:57:08.156Z,30.30
2022-12-11T03:58:08.177Z,29.90
2022-12-11T03:59:08.158Z,30.40
2022-12-11T04:00:08.146Z,29.60
2022-12-11T04:01:08.161Z,30.80
2022-12-11T04:02:08.225Z,30.10
2022-12-11T04:03:12.986Z,29.50
2022-12-11T04:04:09.106Z,30.30
2022-12-11T04:05:08.345Z,29.10
2022-12-11T04:06:08.070Z,29.80
2022-12-11T04:07:08.039Z,29.40
2022-12-11T04:08:08.186Z,29.80
2022-12-11T04:09:08.029Z,28.50
2022-12-11T04:10:08.033Z,28.80
2022-12-11T04:11:08.018Z,28.10
2022-12-11T04:12:08.014Z,28.50
2022-12-11T04:13:08.016Z,28.60
2022-12-11T04:14:08.017Z,29.10
2022-12-11T04:15:08.037Z,28.50
2022-12-11T04:16:07.992Z,29.00
2022-12-11T04:17:07.939Z,29.60
2022-12-11T04:18:07.951Z,30.50
2022-12-11T04:19:07.921Z,30.20
2022-12-11T04:20:07.937Z,30.40
2022-12-11T04:21:07.897Z,29.20
2022-12-11T04:22:07.949Z,29.60
2022-12-11T04:23:07.888Z,29.10
2022-12-11T04:24:07.949Z,29.70
2022-12-11T04:25:08.142Z,29.20
2022-12-11T04:26:07.987Z,29.60
2022-12-11T04:27:07.997Z,30.10
2022-12-11T04:28:07.886Z,31.30
2022-12-11T04:29:07.907Z,31.00
2022-12-11T04:30:07.828Z,30.30
2022-12-11T04:31:07.986Z,30.20
2022-12-11T04:32:07.818Z,29.90
2022-12-11T04:33:07.784Z,29.30
2022-12-11T04:34:07.780Z,28.80
2022-12-11T04:35:08.117Z,30.40
2022-12-11T04:36:07.775Z,28.70
2022-12-11T04:37:07.720Z,29.00
2022-12-11T04:38:08.017Z,30.40
2022-12-11T04:39:07.696Z,29.20
2022-12-11T04:40:07.710Z,28.00
2022-12-11T04:41:07.706Z,30.80
2022-12-11T04:42:07.706Z,28.60
2022-12-11T04:43:07.678Z,28.10
2022-12-11T04:44:07.708Z,28.60
2022-12-11T04:45:07.856Z,29.00
2022-12-11T04:46:07.669Z,28.20
2022-12-11T04:47:07.628Z,28.70
2022-12-11T04:48:07.727Z,29.10
2022-12-11T04:49:07.602Z,30.10
2022-12-11T04:50:07.605Z,28.10
2022-12-11T04:51:07.577Z,28.90
2022-12-11T04:52:07.656Z,29.00
2022-12-11T04:53:07.567Z,28.80
2022-12-11T04:54:07.764Z,28.90
2022-12-11T04:55:07.674Z,28.00
2022-12-11T04:56:07.583Z,28.20
2022-12-11T04:57:07.509Z,28.00
2022-12-11T04:58:07.538Z,28.50
2022-12-11T04:59:07.499Z,28.00
2022-12-11T05:00:07.512Z,28.20
2022-12-11T05:01:07.467Z,28.30
2022-12-11T05:02:07.604Z,28.40
2022-12-11T05:03:07.475Z,28.30
2022-12-11T05:04:07.527Z,29.90
2022-12-11T05:05:07.454Z,29.70
2022-12-11T05:06:07.470Z,28.40
2022-12-11T05:07:07.408Z,28.80
2022-12-11T05:08:07.699Z,28.20
2022-12-11T05:09:07.478Z,28.50
2022-12-11T05:10:07.420Z,27.20
2022-12-11T05:11:07.359Z,29.20
2022-12-11T05:12:07.460Z,29.20
2022-12-11T05:13:07.359Z,29.40
2022-12-11T05:14:07.443Z,28.70
2022-12-11T05:15:07.338Z,28.80
2022-12-11T05:16:07.446Z,28.30
2022-12-11T05:17:07.308Z,28.80
2022-12-11T05:18:07.408Z,28.40
2022-12-11T05:19:07.289Z,28.70
2022-12-11T05:20:07.372Z,28.80
2022-12-11T05:21:07.258Z,29.20
2022-12-11T05:22:07.339Z,29.00
2022-12-11T05:23:07.239Z,28.30
2022-12-11T05:24:07.325Z,27.20
2022-12-11T05:25:07.288Z,28.00
2022-12-11T05:26:07.239Z,28.10
2022-12-11T05:27:07.210Z,28.40
2022-12-11T05:28:07.211Z,28.70
2022-12-11T05:29:07.189Z,27.80
2022-12-11T05:30:07.180Z,29.40
2022-12-11T05:31:07.212Z,28.30
2022-12-11T05:32:07.189Z,28.00
2022-12-11T05:33:07.139Z,29.10
2022-12-11T05:34:07.230Z,27.60
2022-12-11T05:35:07.111Z,28.50
2022-12-11T05:36:07.105Z,28.50
2022-12-11T05:37:07.100Z,27.80
2022-12-11T05:38:07.159Z,27.80
2022-12-11T05:39:07.089Z,27.80
2022-12-11T05:40:07.205Z,28.70
2022-12-11T05:41:07.061Z,28.40
2022-12-11T05:42:07.060Z,28.70
2022-12-11T05:43:07.069Z,28.60
2022-12-11T05:44:07.133Z,28.90
2022-12-11T05:45:07.001Z,30.10
2022-12-11T05:46:07.116Z,30.10
2022-12-11T05:47:06.991Z,28.80
2022-12-11T05:48:07.083Z,28.70
2022-12-11T05:49:06.999Z,28.80
2022-12-11T05:50:07.000Z,28.20
2022-12-11T05:51:06.952Z,30.10
2022-12-11T05:52:07.042Z,29.50
2022-12-11T05:53:06.923Z,30.90
2022-12-11T05:54:06.992Z,29.60
2022-12-11T05:55:06.904Z,30.80
2022-12-11T05:56:06.931Z,30.20
2022-12-11T05:57:06.882Z,29.60
2022-12-11T05:58:06.953Z,30.20
2022-12-11T05:59:06.870Z,30.60
2022-12-11T06:00:06.902Z,29.20
2022-12-11T06:01:06.840Z,29.80
2022-12-11T06:02:06.878Z,30.20
2022-12-11T06:03:06.921Z,30.90
2022-12-11T06:04:06.840Z,30.30
2022-12-11T06:05:06.807Z,31.30
2022-12-11T06:06:06.832Z,29.60
2022-12-11T06:07:06.782Z,28.70
2022-12-11T06:08:06.893Z,30.50
2022-12-11T06:09:06.762Z,30.30
2022-12-11T06:10:06.764Z,30.60
2022-12-11T06:11:06.739Z,29.10
2022-12-11T06:12:06.779Z,30.70
2022-12-11T06:13:06.712Z,31.50
2022-12-11T06:14:06.711Z,32.00
2022-12-11T06:15:06.710Z,30.70
2022-12-11T06:16:06.806Z,29.20
2022-12-11T06:17:06.671Z,30.20
2022-12-11T06:18:06.730Z,30.00
2022-12-11T06:19:06.652Z,30.80
2022-12-11T06:20:06.743Z,29.80
2022-12-11T06:21:06.621Z,31.20
2022-12-11T06:22:06.673Z,30.30
2022-12-11T06:23:06.614Z,30.90
2022-12-11T06:24:06.636Z,31.30
2022-12-11T06:25:06.589Z,31.40
2022-12-11T06:26:06.611Z,31.00
2022-12-11T06:27:06.572Z,30.60
2022-12-11T06:28:06.565Z,30.30
2022-12-11T06:29:10.955Z,31.50
2022-12-11T06:30:07.664Z,30.60
2022-12-11T06:31:06.522Z,30.70
2022-12-11T06:32:06.659Z,31.40
2022-12-11T06:33:06.524Z,31.20
2022-12-11T06:34:06.541Z,33.70
2022-12-11T06:35:06.485Z,33.20
2022-12-11T06:36:06.505Z,34.00
2022-12-11T06:37:06.454Z,34.30
2022-12-11T06:38:06.621Z,36.40
2022-12-11T06:39:06.443Z,33.50
2022-12-11T06:40:06.514Z,30.50
2022-12-11T06:41:06.417Z,28.80
2022-12-11T06:42:06.485Z,29.10
2022-12-11T06:43:06.404Z,29.20
2022-12-11T06:44:06.439Z,30.00
2022-12-11T06:45:06.394Z,29.50
2022-12-11T06:46:06.430Z,27.10
2022-12-11T06:47:06.352Z,27.00
2022-12-11T06:48:06.419Z,26.60
2022-12-11T06:49:06.334Z,27.20
2022-12-11T06:50:06.334Z,29.10
2022-12-11T06:51:06.305Z,27.30
2022-12-11T06:52:06.373Z,29.00
2022-12-11T06:53:06.303Z,28.80
2022-12-11T06:54:06.393Z,29.60
2022-12-11T06:55:06.293Z,29.40
2022-12-11T06:56:06.311Z,29.40
2022-12-11T06:57:06.251Z,28.30
2022-12-11T06:58:06.252Z,29.30
2022-12-11T06:59:07.653Z,30.10
2022-12-11T07:00:06.243Z,29.90
2022-12-11T07:01:06.225Z,29.30
2022-12-11T07:02:06.260Z,30.20
2022-12-11T07:03:06.191Z,29.70
2022-12-11T07:04:06.193Z,28.60
2022-12-11T07:05:06.186Z,30.00
2022-12-11T07:06:06.156Z,29.50
2022-12-11T07:07:06.135Z,28.70
2022-12-11T07:08:06.192Z,29.00
2022-12-11T07:09:06.131Z,29.00
2022-12-11T07:10:08.621Z,30.80
2022-12-11T07:11:06.096Z,30.00
2022-12-11T07:12:06.144Z,31.00
2022-12-11T07:13:06.064Z,32.40
2022-12-11T07:14:06.113Z,32.50
2022-12-11T07:15:06.064Z,33.90
2022-12-11T07:16:06.079Z,33.20
2022-12-11T07:17:06.053Z,33.90
2022-12-11T07:18:06.023Z,34.00
2022-12-11T07:19:06.005Z,34.70
2022-12-11T07:20:06.031Z,35.60
2022-12-11T07:21:05.999Z,35.80
2022-12-11T07:22:06.063Z,34.60
2022-12-11T07:23:05.974Z,35.10
2022-12-11T07:24:05.974Z,36.30
2022-12-11T07:25:05.955Z,38.00
2022-12-11T07:26:05.959Z,38.00
2022-12-11T07:27:05.937Z,37.70
2022-12-11T07:28:05.938Z,39.20
2022-12-11T07:29:05.943Z,39.60
2022-12-11T07:30:05.989Z,40.10
2022-12-11T07:31:05.875Z,41.00
2022-12-11T07:32:05.977Z,39.60
2022-12-11T07:33:05.874Z,40.50
2022-12-11T07:34:05.858Z,39.30
2022-12-11T07:35:05.854Z,40.50
2022-12-11T07:36:05.845Z,41.10
2022-12-11T07:37:05.818Z,40.00
2022-12-11T07:38:05.819Z,40.80
2022-12-11T07:39:05.794Z,41.60
2022-12-11T07:40:05.849Z,40.80
2022-12-11T07:41:05.775Z,42.00
2022-12-11T07:42:05.814Z,42.60
2022-12-11T07:43:05.776Z,41.00
2022-12-11T07:44:05.786Z,41.70
2022-12-11T07:45:05.753Z,43.30
2022-12-11T07:46:05.845Z,42.90
2022-12-11T07:47:06.005Z,44.40
2022-12-11T07:48:05.703Z,42.60
2022-12-11T07:49:05.689Z,43.20
2022-12-11T07:50:05.719Z,43.80
2022-12-11T07:51:05.720Z,44.50
2022-12-11T07:52:05.683Z,44.10
2022-12-11T07:53:05.648Z,42.50
2022-12-11T07:54:05.652Z,42.90
2022-12-11T07:55:05.624Z,43.50
2022-12-11T07:56:05.689Z,44.60
2022-12-11T07:57:08.164Z,45.00
2022-12-11T07:58:06.678Z,42.50
2022-12-11T07:59:05.587Z,43.70
2022-12-11T08:00:05.633Z,44.90
2022-12-11T08:01:05.633Z,46.00
2022-12-11T08:02:05.633Z,45.40
2022-12-11T08:03:05.544Z,45.20
2022-12-11T08:04:05.536Z,48.60
2022-12-11T08:05:05.544Z,48.10
2022-12-11T08:06:05.536Z,48.60
2022-12-11T08:07:05.495Z,48.20
2022-12-11T08:08:05.557Z,45.20
2022-12-11T08:09:05.498Z,73.00
2022-12-11T08:10:05.474Z,85.00
2022-12-11T08:11:05.468Z,62.20
2022-12-11T08:12:05.461Z,51.90
2022-12-11T08:13:05.425Z,55.80
2022-12-11T08:14:05.428Z,45.00
2022-12-11T08:15:05.498Z,50.20
2022-12-11T08:16:05.425Z,45.30
2022-12-11T08:17:05.494Z,43.50
2022-12-11T08:18:05.468Z,47.00
2022-12-11T08:19:05.400Z,45.70
2022-12-11T08:20:05.442Z,46.60
2022-12-11T08:21:05.365Z,47.40
2022-12-11T08:22:05.350Z,44.50
2022-12-11T08:23:05.335Z,52.20
2022-12-11T08:24:05.469Z,48.30
2022-12-11T08:25:05.307Z,45.30
2022-12-11T08:26:05.309Z,44.50
2022-12-11T08:27:05.295Z,47.00
2022-12-11T08:28:05.404Z,44.10
2022-12-11T08:29:05.267Z,46.40
2022-12-11T08:30:05.288Z,45.30
2022-12-11T08:31:05.344Z,45.50
2022-12-11T08:32:10.546Z,45.50
2022-12-11T08:33:06.217Z,52.40
2022-12-11T08:34:05.251Z,44.80
2022-12-11T08:35:05.199Z,46.00
2022-12-11T08:36:05.217Z,44.60
2022-12-11T08:37:05.186Z,43.50
2022-12-11T08:38:05.187Z,45.00
2022-12-11T08:39:05.161Z,46.00
2022-12-11T08:40:05.147Z,46.00
2022-12-11T08:41:05.170Z,45.80
2022-12-11T08:42:05.180Z,46.80
2022-12-11T08:43:05.191Z,46.30
2022-12-11T08:44:06.104Z,43.90
2022-12-11T08:45:05.117Z,44.90
2022-12-11T08:46:05.146Z,44.50
2022-12-11T08:47:05.084Z,44.50
2022-12-11T08:48:05.218Z,47.90
2022-12-11T08:49:05.048Z,44.50
2022-12-11T08:50:05.058Z,44.40
2022-12-11T08:51:05.049Z,43.60
2022-12-11T08:52:05.040Z,45.50
2022-12-11T08:53:05.203Z,42.80
2022-12-11T08:54:05.036Z,41.40
2022-12-11T08:55:04.988Z,42.40
2022-12-11T08:56:04.992Z,41.70
2022-12-11T08:57:04.977Z,40.10
2022-12-11T08:58:05.076Z,40.50
2022-12-11T08:59:04.988Z,40.60
2022-12-11T09:00:04.996Z,40.70
2022-12-11T09:01:04.999Z,41.10
2022-12-11T09:02:04.930Z,43.40
2022-12-11T09:03:08.475Z,41.00
2022-12-11T09:04:06.005Z,41.20
2022-12-11T09:05:04.902Z,41.40
2022-12-11T09:06:04.939Z,42.30
2022-12-11T09:07:04.859Z,41.30
2022-12-11T09:08:04.928Z,41.50
2022-12-11T09:09:04.840Z,43.00
2022-12-11T09:10:04.849Z,43.30
2022-12-11T09:11:04.851Z,43.30
2022-12-11T09:12:04.838Z,43.70
2022-12-11T09:13:04.789Z,44.50
2022-12-11T09:14:07.645Z,44.30
2022-12-11T09:15:04.789Z,44.50
2022-12-11T09:16:04.824Z,43.00
2022-12-11T09:17:04.797Z,42.20
2022-12-11T09:18:04.760Z,42.20
2022-12-11T09:19:04.733Z,42.00
2022-12-11T09:20:04.728Z,41.80
2022-12-11T09:21:04.719Z,48.70
2022-12-11T09:22:04.716Z,48.50
2022-12-11T09:23:04.700Z,43.90
2022-12-11T09:24:04.784Z,42.00
2022-12-11T09:25:04.720Z,42.50
2022-12-11T09:26:04.689Z,41.70
2022-12-11T09:27:04.662Z,46.20
2022-12-11T09:28:04.690Z,59.10
2022-12-11T09:29:04.632Z,44.90
2022-12-11T09:30:04.647Z,41.10
2022-12-11T09:31:04.672Z,54.40
2022-12-11T09:32:04.652Z,48.80
2022-12-11T09:33:04.590Z,44.50
2022-12-11T09:34:04.626Z,66.80
2022-12-11T09:35:04.560Z,49.50
2022-12-11T09:36:04.580Z,42.30
2022-12-11T09:37:04.560Z,43.30
2022-12-11T09:38:04.541Z,35.40
2022-12-11T09:39:04.529Z,37.70
2022-12-11T09:40:07.790Z,38.80
2022-12-11T09:41:04.518Z,37.50
2022-12-11T09:42:04.566Z,38.90
2022-12-11T09:43:04.480Z,39.00
2022-12-11T09:44:04.469Z,38.90
2022-12-11T09:45:04.460Z,40.70
2022-12-11T09:46:04.524Z,39.40
2022-12-11T09:47:04.465Z,43.00
2022-12-11T09:48:04.533Z,44.40
2022-12-11T09:49:04.419Z,42.60
2022-12-11T09:50:04.482Z,40.60
2022-12-11T09:51:04.409Z,39.90
2022-12-11T09:52:04.416Z,40.90
2022-12-11T09:53:04.370Z,38.60
2022-12-11T09:54:04.585Z,43.10
2022-12-11T09:55:04.357Z,40.90
2022-12-11T09:56:04.373Z,40.10
2022-12-11T09:57:04.343Z,40.50
2022-12-11T09:58:04.321Z,39.30
2022-12-11T09:59:04.312Z,37.80
2022-12-11T10:00:05.269Z,36.80
2022-12-11T10:01:04.337Z,35.50
2022-12-11T10:02:04.301Z,35.40
2022-12-11T10:03:04.273Z,37.00
2022-12-11T10:04:04.283Z,35.60
2022-12-11T10:05:04.343Z,37.00
2022-12-11T10:06:05.243Z,38.30
2022-12-11T10:07:04.273Z,38.80
2022-12-11T10:08:04.321Z,37.00
2022-12-11T10:09:04.240Z,36.40
2022-12-11T10:10:04.271Z,34.60
2022-12-11T10:11:04.192Z,33.70
2022-12-11T10:12:04.232Z,35.50
2022-12-11T10:13:04.167Z,35.60
2022-12-11T10:14:04.288Z,34.80
2022-12-11T10:15:04.195Z,35.00
2022-12-11T10:16:04.204Z,35.00
2022-12-11T10:17:04.140Z,34.00
2022-12-11T10:18:05.346Z,34.60
2022-12-11T10:19:04.093Z,34.60
2022-12-11T10:20:04.112Z,34.90
2022-12-11T10:21:04.077Z,35.50
2022-12-11T10:22:04.099Z,35.30
2022-12-11T10:23:04.064Z,35.40
2022-12-11T10:24:04.047Z,34.90
2022-12-11T10:25:12.362Z,35.30
2022-12-11T10:26:05.064Z,36.00
2022-12-11T10:27:04.025Z,36.30
2022-12-11T10:28:04.021Z,35.20
2022-12-11T10:29:03.996Z,36.00
2022-12-11T10:30:03.991Z,35.30
2022-12-11T10:31:04.056Z,35.60
2022-12-11T10:32:04.020Z,37.80
2022-12-11T10:33:03.945Z,35.90
2022-12-11T10:34:03.958Z,34.90
2022-12-11T10:35:04.114Z,36.30
2022-12-11T10:36:03.928Z,35.30
2022-12-11T10:37:03.914Z,34.90
2022-12-11T10:38:03.954Z,34.00
2022-12-11T10:39:03.895Z,34.30
2022-12-11T10:40:03.894Z,35.60
2022-12-11T10:41:03.867Z,34.20
2022-12-11T10:42:03.960Z,35.60
2022-12-11T10:43:03.835Z,34.60
2022-12-11T10:44:03.864Z,36.50
2022-12-11T10:45:03.816Z,35.30
2022-12-11T10:46:04.129Z,43.30
2022-12-11T10:47:03.814Z,36.70
2022-12-11T10:48:03.809Z,35.40
2022-12-11T10:49:03.777Z,35.30
2022-12-11T10:50:03.868Z,33.90
2022-12-11T10:51:03.780Z,35.40
2022-12-11T10:52:03.769Z,34.40
2022-12-11T10:53:03.750Z,35.00
2022-12-11T10:54:07.127Z,33.10
2022-12-11T10:55:03.761Z,31.00
2022-12-11T10:56:03.773Z,34.20
2022-12-11T10:57:03.738Z,35.80
2022-12-11T10:58:03.698Z,33.80
2022-12-11T10:59:03.676Z,30.90
2022-12-11T11:00:03.690Z,32.60
2022-12-11T11:01:03.693Z,33.40
2022-12-11T11:02:03.765Z,33.90
2022-12-11T11:03:03.675Z,34.20
2022-12-11T11:04:03.702Z,33.70
2022-12-11T11:05:03.649Z,32.40
2022-12-11T11:06:03.618Z,31.90
2022-12-11T11:07:03.597Z,33.10
2022-12-11T11:08:03.722Z,33.30
2022-12-11T11:09:03.559Z,31.50
2022-12-11T11:10:03.863Z,30.90
2022-12-11T11:11:03.592Z,32.70
2022-12-11T11:12:07.931Z,31.60
2022-12-11T11:13:03.516Z,33.20
2022-12-11T11:14:03.559Z,33.60
2022-12-11T11:15:03.488Z,33.30
2022-12-11T11:16:03.607Z,31.20
2022-12-11T11:17:03.467Z,32.30
2022-12-11T11:18:03.491Z,31.90
2022-12-11T11:19:03.441Z,31.20
2022-12-11T11:20:03.443Z,31.90
2022-12-11T11:21:03.423Z,31.70
2022-12-11T11:22:03.422Z,30.90
2022-12-11T11:23:03.410Z,30.10
2022-12-11T11:24:03.432Z,30.10
2022-12-11T11:25:03.384Z,30.50
2022-12-11T11:26:03.450Z,30.30
2022-12-11T11:27:18.785Z,31.50
2022-12-11T11:28:04.406Z,32.40
2022-12-11T11:29:03.339Z,31.70
2022-12-11T11:30:03.367Z,31.70
2022-12-11T11:31:03.356Z,31.70
2022-12-11T11:32:03.298Z,30.10
2022-12-11T11:33:03.300Z,31.50
2022-12-11T11:34:03.423Z,30.80
2022-12-11T11:35:03.279Z,31.10
2022-12-11T11:36:03.314Z,30.90
2022-12-11T11:37:03.241Z,31.00
2022-12-11T11:38:03.289Z,30.60
2022-12-11T11:39:03.232Z,30.20
2022-12-11T11:40:03.238Z,31.10
2022-12-11T11:41:07.598Z,29.70
2022-12-11T11:42:04.192Z,30.10
2022-12-11T11:43:03.200Z,31.00
2022-12-11T11:44:03.181Z,29.50
2022-12-11T11:45:03.261Z,30.00
2022-12-11T11:46:03.165Z,30.20
2022-12-11T11:47:03.140Z,31.80
2022-12-11T11:48:07.852Z,30.50
2022-12-11T11:49:04.112Z,30.60
2022-12-11T11:50:03.366Z,31.30
2022-12-11T11:51:03.111Z,37.40
2022-12-11T11:52:03.163Z,29.60
2022-12-11T11:53:03.102Z,29.80
2022-12-11T11:54:03.116Z,34.60
2022-12-11T11:55:03.052Z,29.60
2022-12-11T11:56:03.054Z,29.50
2022-12-11T11:57:03.024Z,31.60
2022-12-11T11:58:03.084Z,30.20
2022-12-11T11:59:03.034Z,31.50
2022-12-11T12:00:03.002Z,29.80
2022-12-11T12:01:02.993Z,30.80
2022-12-11T12:02:02.995Z,32.50
2022-12-11T12:03:03.006Z,29.20
2022-12-11T12:04:03.368Z,26.90
2022-12-11T12:05:02.937Z,29.70
2022-12-11T12:06:02.956Z,29.00
2022-12-11T12:07:02.966Z,27.80
2022-12-11T12:08:02.959Z,26.30
2022-12-11T12:09:02.924Z,28.60
2022-12-11T12:10:02.924Z,29.20
2022-12-11T12:11:02.894Z,28.60
2022-12-11T12:12:02.893Z,27.10
2022-12-11T12:13:02.856Z,27.30
2022-12-11T12:14:03.431Z,26.00
2022-12-11T12:15:02.837Z,25.00
2022-12-11T12:16:02.907Z,24.40
2022-12-11T12:17:02.868Z,25.30
2022-12-11T12:18:02.840Z,24.90
2022-12-11T12:19:02.797Z,26.40
2022-12-11T12:20:02.876Z,26.20
2022-12-11T12:21:02.764Z,23.00
2022-12-11T12:22:02.887Z,23.80
2022-12-11T12:23:02.754Z,23.00
2022-12-11T12:24:02.791Z,23.20
2022-12-11T12:25:02.735Z,22.70
2022-12-11T12:26:02.724Z,22.90
2022-12-11T12:27:02.733Z,22.20
2022-12-11T12:28:02.695Z,22.30
2022-12-11T12:29:02.695Z,22.50
2022-12-11T12:30:02.749Z,21.60
2022-12-11T12:31:02.668Z,22.00
2022-12-11T12:32:02.723Z,22.50
2022-12-11T12:33:02.645Z,21.20
2022-12-11T12:34:02.637Z,22.30
2022-12-11T12:35:02.664Z,22.60
2022-12-11T12:36:06.814Z,23.50
2022-12-11T12:37:02.610Z,22.90
2022-12-11T12:38:02.689Z,22.20
2022-12-11T12:39:02.588Z,23.20
2022-12-11T12:40:02.919Z,24.50
2022-12-11T12:41:02.564Z,24.50
2022-12-11T12:42:07.230Z,22.40
2022-12-11T12:43:03.526Z,23.30
2022-12-11T12:44:02.605Z,22.00
2022-12-11T12:45:02.515Z,22.20
2022-12-11T12:46:02.580Z,21.60
2022-12-11T12:47:02.519Z,21.40
2022-12-11T12:48:02.509Z,21.00
2022-12-11T12:49:02.477Z,21.10
2022-12-11T12:50:02.524Z,21.00
2022-12-11T12:51:02.446Z,20.40
2022-12-11T12:52:02.525Z,21.30